sensor_id;sensor_type;location;lat;lon;timestamp;P1;durP1;ratioP1;P2;durP2;ratioP2
67554;SDS011;54385;53.516;49.456;2023-02-14T00:02:05;3.55;;;2.75;;
67554;SDS011;54385;53.516;49.456;2023-02-14T00:04:32;4.32;;;2.55;;
67554;SDS011;54385;53.516;49.456;2023-02-14T00:07:03;3.30;;;2.33;;
67554;SDS011;54385;53.516;49.456;2023-02-14T00:09:30;3.63;;;2.08;;
67554;SDS011;54385;53.516;49.456;2023-02-14T00:11:57;2.28;;;1.77;;
67554;SDS011;54385;53.516;49.456;2023-02-14T00:14:23;3.65;;;2.53;;
67554;SDS011;54385;53.516;49.456;2023-02-14T00:17:08;2.83;;;2.08;;
67554;SDS011;54385;53.516;49.456;2023-02-14T00:19:35;4.13;;;2.35;;
67554;SDS011;54385;53.516;49.456;2023-02-14T00:22:02;1.50;;;1.40;;
67554;SDS011;54385;53.516;49.456;2023-02-14T00:24:29;3.53;;;2.30;;
67554;SDS011;54385;53.516;49.456;2023-02-14T00:26:56;5.07;;;2.88;;
67554;SDS011;54385;53.516;49.456;2023-02-14T00:29:27;5.70;;;3.10;;
67554;SDS011;54385;53.516;49.456;2023-02-14T00:31:55;2.75;;;2.22;;
67554;SDS011;54385;53.516;49.456;2023-02-14T00:34:21;2.55;;;1.73;;
67554;SDS011;54385;53.516;49.456;2023-02-14T00:36:48;5.03;;;2.60;;
67554;SDS011;54385;53.516;49.456;2023-02-14T00:39:14;3.45;;;2.10;;
67554;SDS011;54385;53.516;49.456;2023-02-14T00:41:41;4.55;;;2.58;;
67554;SDS011;54385;53.516;49.456;2023-02-14T00:44:09;3.15;;;2.85;;
67554;SDS011;54385;53.516;49.456;2023-02-14T00:46:36;6.30;;;3.40;;
67554;SDS011;54385;53.516;49.456;2023-02-14T00:49:02;4.60;;;3.08;;
67554;SDS011;54385;53.516;49.456;2023-02-14T00:51:29;2.00;;;1.70;;
67554;SDS011;54385;53.516;49.456;2023-02-14T00:53:56;3.95;;;2.65;;
67554;SDS011;54385;53.516;49.456;2023-02-14T00:56:22;3.95;;;2.83;;
67554;SDS011;54385;53.516;49.456;2023-02-14T00:58:48;4.32;;;2.20;;
67554;SDS011;54385;53.516;49.456;2023-02-14T01:01:15;4.10;;;2.42;;
67554;SDS011;54385;53.516;49.456;2023-02-14T01:06:08;2.50;;;2.10;;
67554;SDS011;54385;53.516;49.456;2023-02-14T01:08:35;2.78;;;2.22;;
67554;SDS011;54385;53.516;49.456;2023-02-14T01:11:08;3.85;;;2.40;;
67554;SDS011;54385;53.516;49.456;2023-02-14T01:13:36;2.78;;;1.48;;
67554;SDS011;54385;53.516;49.456;2023-02-14T01:16:06;3.65;;;1.98;;
67554;SDS011;54385;53.516;49.456;2023-02-14T01:18:34;3.17;;;2.38;;
67554;SDS011;54385;53.516;49.456;2023-02-14T01:21:24;3.85;;;2.20;;
67554;SDS011;54385;53.516;49.456;2023-02-14T01:23:53;6.35;;;3.13;;
67554;SDS011;54385;53.516;49.456;2023-02-14T01:26:22;3.28;;;1.77;;
67554;SDS011;54385;53.516;49.456;2023-02-14T01:28:49;3.80;;;2.13;;
67554;SDS011;54385;53.516;49.456;2023-02-14T01:31:20;5.05;;;2.90;;
67554;SDS011;54385;53.516;49.456;2023-02-14T01:33:48;2.47;;;1.60;;
67554;SDS011;54385;53.516;49.456;2023-02-14T01:38:56;2.63;;;1.65;;
67554;SDS011;54385;53.516;49.456;2023-02-14T01:41:24;5.68;;;2.42;;
67554;SDS011;54385;53.516;49.456;2023-02-14T01:46:33;5.22;;;1.65;;
67554;SDS011;54385;53.516;49.456;2023-02-14T01:49:17;1.98;;;1.55;;
67554;SDS011;54385;53.516;49.456;2023-02-14T01:51:53;4.03;;;3.00;;
67554;SDS011;54385;53.516;49.456;2023-02-14T01:54:26;4.45;;;1.85;;
67554;SDS011;54385;53.516;49.456;2023-02-14T01:56:56;5.63;;;2.65;;
67554;SDS011;54385;53.516;49.456;2023-02-14T01:59:26;5.07;;;2.78;;
67554;SDS011;54385;53.516;49.456;2023-02-14T02:01:57;4.18;;;2.00;;
67554;SDS011;54385;53.516;49.456;2023-02-14T02:04:25;3.80;;;2.55;;
67554;SDS011;54385;53.516;49.456;2023-02-14T02:06:58;4.03;;;2.70;;
67554;SDS011;54385;53.516;49.456;2023-02-14T02:12:02;7.93;;;2.95;;
67554;SDS011;54385;53.516;49.456;2023-02-14T02:14:29;5.28;;;3.30;;
67554;SDS011;54385;53.516;49.456;2023-02-14T02:25:22;3.17;;;2.30;;
67554;SDS011;54385;53.516;49.456;2023-02-14T02:28:11;5.68;;;2.67;;
67554;SDS011;54385;53.516;49.456;2023-02-14T02:36:20;5.35;;;3.25;;
67554;SDS011;54385;53.516;49.456;2023-02-14T02:41:38;4.13;;;2.13;;
67554;SDS011;54385;53.516;49.456;2023-02-14T02:47:03;4.43;;;3.28;;
67554;SDS011;54385;53.516;49.456;2023-02-14T02:53:28;5.60;;;3.08;;
67554;SDS011;54385;53.516;49.456;2023-02-14T02:55:44;3.38;;;2.55;;
67554;SDS011;54385;53.516;49.456;2023-02-14T03:01:44;6.25;;;3.33;;
67554;SDS011;54385;53.516;49.456;2023-02-14T03:04:35;4.70;;;2.58;;
67554;SDS011;54385;53.516;49.456;2023-02-14T03:07:35;5.43;;;3.22;;
67554;SDS011;54385;53.516;49.456;2023-02-14T03:10:18;4.07;;;2.22;;
67554;SDS011;54385;53.516;49.456;2023-02-14T03:18:33;4.50;;;2.35;;
67554;SDS011;54385;53.516;49.456;2023-02-14T03:21:25;3.92;;;2.47;;
67554;SDS011;54385;53.516;49.456;2023-02-14T03:27:27;4.70;;;2.60;;
67554;SDS011;54385;53.516;49.456;2023-02-14T03:30:14;7.68;;;3.58;;
67554;SDS011;54385;53.516;49.456;2023-02-14T03:32:54;5.22;;;2.92;;
67554;SDS011;54385;53.516;49.456;2023-02-14T03:38:29;3.63;;;2.10;;
67554;SDS011;54385;53.516;49.456;2023-02-14T03:41:04;4.13;;;3.00;;
67554;SDS011;54385;53.516;49.456;2023-02-14T03:43:38;3.67;;;2.33;;
67554;SDS011;54385;53.516;49.456;2023-02-14T03:49:07;4.75;;;3.20;;
67554;SDS011;54385;53.516;49.456;2023-02-14T03:51:38;4.80;;;3.10;;
67554;SDS011;54385;53.516;49.456;2023-02-14T03:54:12;5.55;;;3.25;;
67554;SDS011;54385;53.516;49.456;2023-02-14T03:56:46;5.93;;;3.03;;
67554;SDS011;54385;53.516;49.456;2023-02-14T03:59:25;6.45;;;3.83;;
67554;SDS011;54385;53.516;49.456;2023-02-14T04:01:55;3.63;;;2.85;;
67554;SDS011;54385;53.516;49.456;2023-02-14T04:04:30;9.93;;;4.28;;
67554;SDS011;54385;53.516;49.456;2023-02-14T04:07:19;5.10;;;3.30;;
67554;SDS011;54385;53.516;49.456;2023-02-14T04:09:47;5.93;;;3.33;;
67554;SDS011;54385;53.516;49.456;2023-02-14T04:12:15;8.73;;;2.80;;
67554;SDS011;54385;53.516;49.456;2023-02-14T04:14:42;7.03;;;4.00;;
67554;SDS011;54385;53.516;49.456;2023-02-14T04:17:09;5.40;;;2.83;;
67554;SDS011;54385;53.516;49.456;2023-02-14T04:20:09;4.95;;;3.72;;
67554;SDS011;54385;53.516;49.456;2023-02-14T04:25:17;5.10;;;3.28;;
67554;SDS011;54385;53.516;49.456;2023-02-14T04:27:51;6.15;;;4.05;;
67554;SDS011;54385;53.516;49.456;2023-02-14T04:30:18;6.22;;;3.60;;
67554;SDS011;54385;53.516;49.456;2023-02-14T04:33:10;8.45;;;3.67;;
67554;SDS011;54385;53.516;49.456;2023-02-14T04:38:30;5.43;;;3.85;;
67554;SDS011;54385;53.516;49.456;2023-02-14T04:41:03;5.53;;;3.28;;
67554;SDS011;54385;53.516;49.456;2023-02-14T04:43:39;6.75;;;3.83;;
67554;SDS011;54385;53.516;49.456;2023-02-14T04:46:12;6.43;;;4.18;;
67554;SDS011;54385;53.516;49.456;2023-02-14T04:48:44;3.33;;;2.70;;
67554;SDS011;54385;53.516;49.456;2023-02-14T04:51:27;5.55;;;3.65;;
67554;SDS011;54385;53.516;49.456;2023-02-14T04:53:57;5.22;;;3.78;;
67554;SDS011;54385;53.516;49.456;2023-02-14T04:56:36;5.28;;;3.80;;
67554;SDS011;54385;53.516;49.456;2023-02-14T04:59:03;5.22;;;3.03;;
67554;SDS011;54385;53.516;49.456;2023-02-14T05:01:30;3.90;;;2.55;;
67554;SDS011;54385;53.516;49.456;2023-02-14T05:04:05;7.10;;;3.40;;
67554;SDS011;54385;53.516;49.456;2023-02-14T05:06:32;4.40;;;3.17;;
67554;SDS011;54385;53.516;49.456;2023-02-14T05:09:07;4.78;;;3.10;;
67554;SDS011;54385;53.516;49.456;2023-02-14T05:11:36;6.47;;;4.03;;
67554;SDS011;54385;53.516;49.456;2023-02-14T05:14:31;5.35;;;3.00;;
67554;SDS011;54385;53.516;49.456;2023-02-14T05:16:58;5.57;;;3.40;;
67554;SDS011;54385;53.516;49.456;2023-02-14T05:19:36;3.85;;;2.40;;
67554;SDS011;54385;53.516;49.456;2023-02-14T05:22:03;5.85;;;4.00;;
67554;SDS011;54385;53.516;49.456;2023-02-14T05:24:32;3.80;;;2.60;;
67554;SDS011;54385;53.516;49.456;2023-02-14T05:26:59;7.65;;;3.90;;
67554;SDS011;54385;53.516;49.456;2023-02-14T05:29:25;6.53;;;3.97;;
67554;SDS011;54385;53.516;49.456;2023-02-14T05:31:55;5.95;;;3.67;;
67554;SDS011;54385;53.516;49.456;2023-02-14T05:34:45;4.72;;;2.28;;
67554;SDS011;54385;53.516;49.456;2023-02-14T05:37:29;4.70;;;2.45;;
67554;SDS011;54385;53.516;49.456;2023-02-14T05:40:07;6.68;;;2.85;;
67554;SDS011;54385;53.516;49.456;2023-02-14T05:45:11;4.70;;;2.72;;
67554;SDS011;54385;53.516;49.456;2023-02-14T05:48:12;5.47;;;2.65;;
67554;SDS011;54385;53.516;49.456;2023-02-14T05:50:56;6.72;;;3.42;;
67554;SDS011;54385;53.516;49.456;2023-02-14T05:53:22;4.60;;;2.90;;
67554;SDS011;54385;53.516;49.456;2023-02-14T05:55:56;5.53;;;3.65;;
67554;SDS011;54385;53.516;49.456;2023-02-14T05:58:22;3.72;;;2.88;;
67554;SDS011;54385;53.516;49.456;2023-02-14T06:00:49;5.10;;;2.60;;
67554;SDS011;54385;53.516;49.456;2023-02-14T06:03:18;4.88;;;3.00;;
67554;SDS011;54385;53.516;49.456;2023-02-14T06:06:02;5.70;;;3.58;;
67554;SDS011;54385;53.516;49.456;2023-02-14T06:09:04;6.05;;;2.90;;
67554;SDS011;54385;53.516;49.456;2023-02-14T06:11:35;7.53;;;3.90;;
67554;SDS011;54385;53.516;49.456;2023-02-14T06:14:07;3.17;;;2.20;;
67554;SDS011;54385;53.516;49.456;2023-02-14T06:19:16;3.95;;;2.92;;
67554;SDS011;54385;53.516;49.456;2023-02-14T06:21:45;5.10;;;3.17;;
67554;SDS011;54385;53.516;49.456;2023-02-14T06:24:18;5.55;;;3.15;;
67554;SDS011;54385;53.516;49.456;2023-02-14T06:26:51;3.65;;;2.80;;
67554;SDS011;54385;53.516;49.456;2023-02-14T06:29:20;5.60;;;3.05;;
67554;SDS011;54385;53.516;49.456;2023-02-14T06:31:59;4.53;;;3.47;;
67554;SDS011;54385;53.516;49.456;2023-02-14T06:34:43;5.93;;;3.42;;
67554;SDS011;54385;53.516;49.456;2023-02-14T06:37:16;4.03;;;2.95;;
67554;SDS011;54385;53.516;49.456;2023-02-14T06:39:45;6.53;;;4.00;;
67554;SDS011;54385;53.516;49.456;2023-02-14T06:42:12;5.32;;;2.85;;
67554;SDS011;54385;53.516;49.456;2023-02-14T06:44:39;4.93;;;2.97;;
67554;SDS011;54385;53.516;49.456;2023-02-14T06:47:06;4.68;;;2.03;;
67554;SDS011;54385;53.516;49.456;2023-02-14T06:49:35;4.18;;;2.55;;
67554;SDS011;54385;53.516;49.456;2023-02-14T06:52:03;2.40;;;2.20;;
67554;SDS011;54385;53.516;49.456;2023-02-14T06:54:38;4.22;;;2.33;;
67554;SDS011;54385;53.516;49.456;2023-02-14T06:57:08;2.95;;;1.95;;
67554;SDS011;54385;53.516;49.456;2023-02-14T06:59:34;6.32;;;3.85;;
67554;SDS011;54385;53.516;49.456;2023-02-14T07:02:10;5.97;;;3.30;;
67554;SDS011;54385;53.516;49.456;2023-02-14T07:04:37;3.08;;;2.33;;
67554;SDS011;54385;53.516;49.456;2023-02-14T07:07:05;3.45;;;2.50;;
67554;SDS011;54385;53.516;49.456;2023-02-14T07:09:32;2.88;;;1.75;;
67554;SDS011;54385;53.516;49.456;2023-02-14T07:11:59;3.40;;;2.20;;
67554;SDS011;54385;53.516;49.456;2023-02-14T07:14:28;5.18;;;2.60;;
67554;SDS011;54385;53.516;49.456;2023-02-14T07:16:58;4.68;;;3.13;;
67554;SDS011;54385;53.516;49.456;2023-02-14T07:19:25;5.07;;;2.67;;
67554;SDS011;54385;53.516;49.456;2023-02-14T07:21:51;4.95;;;2.55;;
67554;SDS011;54385;53.516;49.456;2023-02-14T07:24:29;4.05;;;3.08;;
67554;SDS011;54385;53.516;49.456;2023-02-14T07:27:07;3.65;;;2.47;;
67554;SDS011;54385;53.516;49.456;2023-02-14T07:35:55;5.97;;;2.33;;
67554;SDS011;54385;53.516;49.456;2023-02-14T07:38:28;3.05;;;1.75;;
67554;SDS011;54385;53.516;49.456;2023-02-14T07:40:55;3.38;;;2.10;;
67554;SDS011;54385;53.516;49.456;2023-02-14T07:43:37;2.90;;;1.75;;
67554;SDS011;54385;53.516;49.456;2023-02-14T07:46:06;4.50;;;2.50;;
67554;SDS011;54385;53.516;49.456;2023-02-14T07:49:17;5.88;;;2.63;;
67554;SDS011;54385;53.516;49.456;2023-02-14T07:52:12;3.08;;;1.85;;
67554;SDS011;54385;53.516;49.456;2023-02-14T07:54:44;2.88;;;2.00;;
67554;SDS011;54385;53.516;49.456;2023-02-14T07:57:29;4.65;;;2.58;;
67554;SDS011;54385;53.516;49.456;2023-02-14T08:00:02;3.83;;;2.28;;
67554;SDS011;54385;53.516;49.456;2023-02-14T08:03:12;4.03;;;2.38;;
67554;SDS011;54385;53.516;49.456;2023-02-14T08:05:47;3.78;;;2.55;;
67554;SDS011;54385;53.516;49.456;2023-02-14T08:08:35;3.33;;;2.03;;
67554;SDS011;54385;53.516;49.456;2023-02-14T08:11:11;4.50;;;2.20;;
67554;SDS011;54385;53.516;49.456;2023-02-14T08:14:10;4.20;;;2.40;;
67554;SDS011;54385;53.516;49.456;2023-02-14T08:17:30;4.65;;;2.72;;
67554;SDS011;54385;53.516;49.456;2023-02-14T08:20:07;5.10;;;3.60;;
67554;SDS011;54385;53.516;49.456;2023-02-14T08:22:34;5.28;;;3.15;;
67554;SDS011;54385;53.516;49.456;2023-02-14T08:25:12;6.30;;;3.80;;
67554;SDS011;54385;53.516;49.456;2023-02-14T08:28:03;5.80;;;3.80;;
67554;SDS011;54385;53.516;49.456;2023-02-14T08:30:40;7.65;;;3.67;;
67554;SDS011;54385;53.516;49.456;2023-02-14T08:36:42;3.40;;;1.92;;
67554;SDS011;54385;53.516;49.456;2023-02-14T08:39:09;5.65;;;2.85;;
67554;SDS011;54385;53.516;49.456;2023-02-14T08:41:36;4.57;;;3.65;;
67554;SDS011;54385;53.516;49.456;2023-02-14T08:44:25;5.75;;;4.38;;
67554;SDS011;54385;53.516;49.456;2023-02-14T08:47:02;8.40;;;4.50;;
67554;SDS011;54385;53.516;49.456;2023-02-14T08:49:32;5.88;;;4.20;;
67554;SDS011;54385;53.516;49.456;2023-02-14T08:52:02;7.55;;;4.40;;
67554;SDS011;54385;53.516;49.456;2023-02-14T08:54:28;4.40;;;3.78;;
67554;SDS011;54385;53.516;49.456;2023-02-14T09:00:16;7.47;;;4.70;;
67554;SDS011;54385;53.516;49.456;2023-02-14T09:02:49;5.35;;;3.92;;
67554;SDS011;54385;53.516;49.456;2023-02-14T09:15:52;7.65;;;4.28;;
67554;SDS011;54385;53.516;49.456;2023-02-14T09:18:26;5.47;;;3.30;;
67554;SDS011;54385;53.516;49.456;2023-02-14T09:20:58;7.63;;;4.22;;
67554;SDS011;54385;53.516;49.456;2023-02-14T09:23:31;8.35;;;4.03;;
67554;SDS011;54385;53.516;49.456;2023-02-14T09:26:01;5.75;;;4.00;;
67554;SDS011;54385;53.516;49.456;2023-02-14T09:28:33;6.00;;;4.18;;
67554;SDS011;54385;53.516;49.456;2023-02-14T09:31:18;4.68;;;2.85;;
67554;SDS011;54385;53.516;49.456;2023-02-14T09:37:53;6.93;;;4.07;;
67554;SDS011;54385;53.516;49.456;2023-02-14T09:40:39;5.15;;;3.38;;
67554;SDS011;54385;53.516;49.456;2023-02-14T09:43:29;7.38;;;4.25;;
67554;SDS011;54385;53.516;49.456;2023-02-14T09:46:04;3.30;;;2.17;;
67554;SDS011;54385;53.516;49.456;2023-02-14T10:07:26;5.60;;;3.75;;
67554;SDS011;54385;53.516;49.456;2023-02-14T10:10:18;9.95;;;4.90;;
67554;SDS011;54385;53.516;49.456;2023-02-14T10:16:19;5.93;;;3.78;;
67554;SDS011;54385;53.516;49.456;2023-02-14T10:22:18;7.72;;;4.03;;
67554;SDS011;54385;53.516;49.456;2023-02-14T10:42:46;5.93;;;4.25;;
67554;SDS011;54385;53.516;49.456;2023-02-14T10:45:35;4.18;;;2.47;;
67554;SDS011;54385;53.516;49.456;2023-02-14T10:48:29;7.38;;;4.15;;
67554;SDS011;54385;53.516;49.456;2023-02-14T10:57:02;7.93;;;4.43;;
67554;SDS011;54385;53.516;49.456;2023-02-14T11:02:55;5.80;;;3.13;;
67554;SDS011;54385;53.516;49.456;2023-02-14T11:05:38;6.50;;;4.43;;
67554;SDS011;54385;53.516;49.456;2023-02-14T11:20:33;6.05;;;4.30;;
67554;SDS011;54385;53.516;49.456;2023-02-14T11:23:32;4.63;;;2.67;;
67554;SDS011;54385;53.516;49.456;2023-02-14T11:43:28;9.15;;;4.40;;
67554;SDS011;54385;53.516;49.456;2023-02-14T11:46:16;5.32;;;3.28;;
67554;SDS011;54385;53.516;49.456;2023-02-14T11:49:32;7.70;;;3.75;;
67554;SDS011;54385;53.516;49.456;2023-02-14T11:52:13;6.65;;;3.45;;
67554;SDS011;54385;53.516;49.456;2023-02-14T11:55:23;6.18;;;3.97;;
67554;SDS011;54385;53.516;49.456;2023-02-14T11:58:04;7.93;;;3.78;;
67554;SDS011;54385;53.516;49.456;2023-02-14T12:01:22;3.08;;;2.55;;
67554;SDS011;54385;53.516;49.456;2023-02-14T12:04:18;7.70;;;3.28;;
67554;SDS011;54385;53.516;49.456;2023-02-14T12:10:35;8.05;;;5.00;;
67554;SDS011;54385;53.516;49.456;2023-02-14T12:13:25;9.60;;;5.10;;
67554;SDS011;54385;53.516;49.456;2023-02-14T12:21:57;3.88;;;2.20;;
67554;SDS011;54385;53.516;49.456;2023-02-14T12:28:09;6.40;;;3.92;;
67554;SDS011;54385;53.516;49.456;2023-02-14T12:30:46;9.07;;;4.75;;
67554;SDS011;54385;53.516;49.456;2023-02-14T12:33:22;10.00;;;4.72;;
67554;SDS011;54385;53.516;49.456;2023-02-14T12:36:20;8.30;;;4.70;;
67554;SDS011;54385;53.516;49.456;2023-02-14T12:39:45;8.07;;;4.80;;
67554;SDS011;54385;53.516;49.456;2023-02-14T13:01:46;11.63;;;5.50;;
67554;SDS011;54385;53.516;49.456;2023-02-14T13:04:43;21.33;;;10.50;;
67554;SDS011;54385;53.516;49.456;2023-02-14T13:19:01;11.32;;;5.50;;
67554;SDS011;54385;53.516;49.456;2023-02-14T13:28:52;10.52;;;5.25;;
67554;SDS011;54385;53.516;49.456;2023-02-14T13:31:32;7.13;;;4.50;;
67554;SDS011;54385;53.516;49.456;2023-02-14T13:37:09;12.52;;;6.25;;
67554;SDS011;54385;53.516;49.456;2023-02-14T13:39:46;11.25;;;5.38;;
67554;SDS011;54385;53.516;49.456;2023-02-14T13:48:10;9.80;;;4.47;;
67554;SDS011;54385;53.516;49.456;2023-02-14T13:50:58;12.88;;;6.00;;
67554;SDS011;54385;53.516;49.456;2023-02-14T13:55:55;13.23;;;6.90;;
67554;SDS011;54385;53.516;49.456;2023-02-14T13:58:23;16.63;;;6.45;;
67554;SDS011;54385;53.516;49.456;2023-02-14T14:00:51;18.48;;;7.63;;
67554;SDS011;54385;53.516;49.456;2023-02-14T14:06:03;16.98;;;7.40;;
67554;SDS011;54385;53.516;49.456;2023-02-14T14:08:42;10.15;;;5.95;;
67554;SDS011;54385;53.516;49.456;2023-02-14T14:14:25;11.82;;;5.57;;
67554;SDS011;54385;53.516;49.456;2023-02-14T14:16:57;13.00;;;5.90;;
67554;SDS011;54385;53.516;49.456;2023-02-14T14:22:02;11.07;;;5.22;;
67554;SDS011;54385;53.516;49.456;2023-02-14T14:24:33;9.18;;;4.53;;
67554;SDS011;54385;53.516;49.456;2023-02-14T14:27:03;9.48;;;5.38;;
67554;SDS011;54385;53.516;49.456;2023-02-14T14:29:59;10.40;;;5.10;;
67554;SDS011;54385;53.516;49.456;2023-02-14T14:32:47;11.07;;;6.05;;
67554;SDS011;54385;53.516;49.456;2023-02-14T14:35:17;10.63;;;4.53;;
67554;SDS011;54385;53.516;49.456;2023-02-14T14:37:51;14.18;;;6.05;;
67554;SDS011;54385;53.516;49.456;2023-02-14T14:40:30;15.48;;;7.85;;
67554;SDS011;54385;53.516;49.456;2023-02-14T14:43:05;16.15;;;6.68;;
67554;SDS011;54385;53.516;49.456;2023-02-14T14:45:38;11.60;;;5.63;;
67554;SDS011;54385;53.516;49.456;2023-02-14T14:51:34;13.50;;;6.78;;
67554;SDS011;54385;53.516;49.456;2023-02-14T14:54:04;11.65;;;4.18;;
67554;SDS011;54385;53.516;49.456;2023-02-14T14:56:43;12.57;;;5.20;;
67554;SDS011;54385;53.516;49.456;2023-02-14T15:02:19;11.75;;;5.65;;
67554;SDS011;54385;53.516;49.456;2023-02-14T15:04:53;14.60;;;7.32;;
67554;SDS011;54385;53.516;49.456;2023-02-14T15:10:19;13.57;;;5.13;;
67554;SDS011;54385;53.516;49.456;2023-02-14T15:12:54;12.75;;;5.07;;
67554;SDS011;54385;53.516;49.456;2023-02-14T15:15:48;10.50;;;4.10;;
67554;SDS011;54385;53.516;49.456;2023-02-14T15:18:18;9.02;;;4.45;;
67554;SDS011;54385;53.516;49.456;2023-02-14T15:21:09;10.30;;;5.60;;
67554;SDS011;54385;53.516;49.456;2023-02-14T15:23:40;10.18;;;5.22;;
67554;SDS011;54385;53.516;49.456;2023-02-14T15:26:26;11.95;;;5.15;;
67554;SDS011;54385;53.516;49.456;2023-02-14T15:28:59;9.82;;;4.10;;
67554;SDS011;54385;53.516;49.456;2023-02-14T15:31:37;12.35;;;4.97;;
67554;SDS011;54385;53.516;49.456;2023-02-14T15:36:41;8.50;;;4.50;;
67554;SDS011;54385;53.516;49.456;2023-02-14T15:39:14;9.82;;;4.05;;
67554;SDS011;54385;53.516;49.456;2023-02-14T15:41:43;7.22;;;4.03;;
67554;SDS011;54385;53.516;49.456;2023-02-14T15:44:20;9.07;;;4.85;;
67554;SDS011;54385;53.516;49.456;2023-02-14T15:46:58;9.90;;;4.50;;
67554;SDS011;54385;53.516;49.456;2023-02-14T15:49:33;7.13;;;3.50;;
67554;SDS011;54385;53.516;49.456;2023-02-14T15:52:10;9.75;;;4.88;;
67554;SDS011;54385;53.516;49.456;2023-02-14T15:54:42;11.95;;;5.85;;
67554;SDS011;54385;53.516;49.456;2023-02-14T15:57:18;11.07;;;6.00;;
67554;SDS011;54385;53.516;49.456;2023-02-14T15:59:48;15.52;;;7.20;;
67554;SDS011;54385;53.516;49.456;2023-02-14T16:05:24;11.40;;;4.40;;
67554;SDS011;54385;53.516;49.456;2023-02-14T16:07:55;13.43;;;6.25;;
67554;SDS011;54385;53.516;49.456;2023-02-14T16:10:27;8.30;;;4.28;;
67554;SDS011;54385;53.516;49.456;2023-02-14T16:15:58;9.55;;;4.68;;
67554;SDS011;54385;53.516;49.456;2023-02-14T16:18:33;13.13;;;6.80;;
67554;SDS011;54385;53.516;49.456;2023-02-14T16:24:21;12.60;;;5.22;;
67554;SDS011;54385;53.516;49.456;2023-02-14T16:26:51;9.00;;;5.13;;
67554;SDS011;54385;53.516;49.456;2023-02-14T16:29:23;10.00;;;5.72;;
67554;SDS011;54385;53.516;49.456;2023-02-14T16:31:51;19.40;;;7.15;;
67554;SDS011;54385;53.516;49.456;2023-02-14T16:34:28;18.90;;;7.93;;
67554;SDS011;54385;53.516;49.456;2023-02-14T16:37:23;19.15;;;9.27;;
67554;SDS011;54385;53.516;49.456;2023-02-14T16:40:15;9.10;;;4.63;;
67554;SDS011;54385;53.516;49.456;2023-02-14T16:42:54;14.02;;;6.25;;
67554;SDS011;54385;53.516;49.456;2023-02-14T16:45:24;6.72;;;3.92;;
67554;SDS011;54385;53.516;49.456;2023-02-14T16:47:53;9.23;;;4.68;;
67554;SDS011;54385;53.516;49.456;2023-02-14T16:50:23;10.48;;;5.88;;
67554;SDS011;54385;53.516;49.456;2023-02-14T16:52:50;9.98;;;5.60;;
67554;SDS011;54385;53.516;49.456;2023-02-14T16:55:23;10.45;;;5.38;;
67554;SDS011;54385;53.516;49.456;2023-02-14T16:57:59;11.55;;;6.47;;
67554;SDS011;54385;53.516;49.456;2023-02-14T17:00:33;16.75;;;7.80;;
67554;SDS011;54385;53.516;49.456;2023-02-14T17:06:01;13.73;;;4.90;;
67554;SDS011;54385;53.516;49.456;2023-02-14T17:08:31;6.70;;;3.65;;
67554;SDS011;54385;53.516;49.456;2023-02-14T17:11:03;8.77;;;3.47;;
67554;SDS011;54385;53.516;49.456;2023-02-14T17:13:30;8.48;;;4.90;;
67554;SDS011;54385;53.516;49.456;2023-02-14T17:16:04;6.80;;;4.03;;
67554;SDS011;54385;53.516;49.456;2023-02-14T17:18:31;9.50;;;3.97;;
67554;SDS011;54385;53.516;49.456;2023-02-14T17:21:02;21.38;;;7.90;;
67554;SDS011;54385;53.516;49.456;2023-02-14T17:25:58;11.73;;;4.70;;
67554;SDS011;54385;53.516;49.456;2023-02-14T17:28:25;12.57;;;5.78;;
67554;SDS011;54385;53.516;49.456;2023-02-14T17:30:52;18.98;;;8.38;;
67554;SDS011;54385;53.516;49.456;2023-02-14T17:33:18;17.20;;;8.02;;
67554;SDS011;54385;53.516;49.456;2023-02-14T17:35:56;21.95;;;9.32;;
67554;SDS011;54385;53.516;49.456;2023-02-14T17:38:55;13.40;;;6.75;;
67554;SDS011;54385;53.516;49.456;2023-02-14T17:41:25;13.02;;;5.30;;
67554;SDS011;54385;53.516;49.456;2023-02-14T17:43:59;8.63;;;3.63;;
67554;SDS011;54385;53.516;49.456;2023-02-14T17:46:54;17.75;;;8.32;;
67554;SDS011;54385;53.516;49.456;2023-02-14T17:49:52;12.45;;;4.75;;
67554;SDS011;54385;53.516;49.456;2023-02-14T17:52:34;7.40;;;3.47;;
67554;SDS011;54385;53.516;49.456;2023-02-14T17:55:49;20.45;;;9.20;;
67554;SDS011;54385;53.516;49.456;2023-02-14T17:58:26;12.05;;;5.60;;
67554;SDS011;54385;53.516;49.456;2023-02-14T18:01:03;5.45;;;3.53;;
67554;SDS011;54385;53.516;49.456;2023-02-14T18:03:41;7.28;;;4.55;;
67554;SDS011;54385;53.516;49.456;2023-02-14T18:06:12;7.63;;;2.88;;
67554;SDS011;54385;53.516;49.456;2023-02-14T18:08:40;8.18;;;4.57;;
67554;SDS011;54385;53.516;49.456;2023-02-14T18:11:11;5.75;;;3.47;;
67554;SDS011;54385;53.516;49.456;2023-02-14T18:13:39;8.35;;;3.63;;
67554;SDS011;54385;53.516;49.456;2023-02-14T18:16:06;5.05;;;3.30;;
67554;SDS011;54385;53.516;49.456;2023-02-14T18:18:34;6.35;;;4.15;;
67554;SDS011;54385;53.516;49.456;2023-02-14T18:21:10;4.63;;;3.10;;
67554;SDS011;54385;53.516;49.456;2023-02-14T18:23:39;9.30;;;4.47;;
67554;SDS011;54385;53.516;49.456;2023-02-14T18:28:39;7.80;;;3.65;;
67554;SDS011;54385;53.516;49.456;2023-02-14T18:31:07;5.65;;;3.80;;
67554;SDS011;54385;53.516;49.456;2023-02-14T18:33:36;6.90;;;3.88;;
67554;SDS011;54385;53.516;49.456;2023-02-14T18:38:32;4.38;;;2.40;;
67554;SDS011;54385;53.516;49.456;2023-02-14T18:41:06;5.88;;;2.85;;
67554;SDS011;54385;53.516;49.456;2023-02-14T18:43:41;6.03;;;3.50;;
67554;SDS011;54385;53.516;49.456;2023-02-14T18:46:10;6.45;;;3.17;;
67554;SDS011;54385;53.516;49.456;2023-02-14T18:48:38;10.43;;;5.68;;
67554;SDS011;54385;53.516;49.456;2023-02-14T18:53:39;8.63;;;4.78;;
67554;SDS011;54385;53.516;49.456;2023-02-14T18:56:07;6.85;;;3.80;;
67554;SDS011;54385;53.516;49.456;2023-02-14T18:58:37;13.55;;;6.07;;
67554;SDS011;54385;53.516;49.456;2023-02-14T19:03:34;12.65;;;5.63;;
67554;SDS011;54385;53.516;49.456;2023-02-14T19:06:01;7.70;;;4.75;;
67554;SDS011;54385;53.516;49.456;2023-02-14T19:08:35;7.10;;;3.38;;
67554;SDS011;54385;53.516;49.456;2023-02-14T19:11:03;10.23;;;5.20;;
67554;SDS011;54385;53.516;49.456;2023-02-14T19:13:34;6.72;;;3.50;;
67554;SDS011;54385;53.516;49.456;2023-02-14T19:16:07;11.40;;;3.72;;
67554;SDS011;54385;53.516;49.456;2023-02-14T19:18:35;7.10;;;3.72;;
67554;SDS011;54385;53.516;49.456;2023-02-14T19:21:17;11.90;;;4.18;;
67554;SDS011;54385;53.516;49.456;2023-02-14T19:23:46;11.95;;;5.90;;
67554;SDS011;54385;53.516;49.456;2023-02-14T19:26:23;20.58;;;9.15;;
67554;SDS011;54385;53.516;49.456;2023-02-14T19:28:55;24.60;;;7.95;;
67554;SDS011;54385;53.516;49.456;2023-02-14T19:31:23;9.23;;;4.07;;
67554;SDS011;54385;53.516;49.456;2023-02-14T19:33:50;13.75;;;5.93;;
67554;SDS011;54385;53.516;49.456;2023-02-14T19:36:22;21.75;;;8.18;;
67554;SDS011;54385;53.516;49.456;2023-02-14T19:38:50;14.18;;;5.18;;
67554;SDS011;54385;53.516;49.456;2023-02-14T19:41:21;6.93;;;4.05;;
67554;SDS011;54385;53.516;49.456;2023-02-14T19:43:55;7.05;;;3.60;;
67554;SDS011;54385;53.516;49.456;2023-02-14T19:46:25;7.82;;;3.58;;
67554;SDS011;54385;53.516;49.456;2023-02-14T19:48:54;5.90;;;3.35;;
67554;SDS011;54385;53.516;49.456;2023-02-14T19:51:22;7.97;;;4.18;;
67554;SDS011;54385;53.516;49.456;2023-02-14T19:53:51;5.32;;;2.70;;
67554;SDS011;54385;53.516;49.456;2023-02-14T19:56:22;5.72;;;3.33;;
67554;SDS011;54385;53.516;49.456;2023-02-14T19:58:51;7.07;;;3.25;;